sensor_id;sensor_type;location;lat;lon;timestamp;pressure;altitude;pressure_sealevel;temperature;humidity
39411;BME280;26579;43.238;23.124;2023-02-18T00:01:30;97566.44;;;8.89;43.45
39411;BME280;26579;43.238;23.124;2023-02-18T00:03:58;97564.59;;;8.91;42.97
39411;BME280;26579;43.238;23.124;2023-02-18T00:06:31;97524.63;;;8.67;42.94
39411;BME280;26579;43.238;23.124;2023-02-18T00:08:57;97557.00;;;8.88;43.48
39411;BME280;26579;43.238;23.124;2023-02-18T00:11:23;97564.69;;;8.90;43.87
39411;BME280;26579;43.238;23.124;2023-02-18T00:13:54;97563.13;;;8.87;44.03
39411;BME280;26579;43.238;23.124;2023-02-18T00:16:21;97564.81;;;8.88;43.55
39411;BME280;26579;43.238;23.124;2023-02-18T00:18:48;97572.47;;;8.90;42.98
39411;BME280;26579;43.238;23.124;2023-02-18T00:21:14;97573.84;;;8.95;43.31
39411;BME280;26579;43.238;23.124;2023-02-18T00:23:40;97567.94;;;8.93;43.58
39411;BME280;26579;43.238;23.124;2023-02-18T00:26:13;97574.66;;;8.96;43.99
39411;BME280;26579;43.238;23.124;2023-02-18T00:28:40;97573.75;;;8.97;43.83
39411;BME280;26579;43.238;23.124;2023-02-18T00:31:07;97571.69;;;9.02;44.15
39411;BME280;26579;43.238;23.124;2023-02-18T00:33:33;97572.19;;;8.94;44.66
39411;BME280;26579;43.238;23.124;2023-02-18T00:36:04;97553.88;;;8.83;44.89
39411;BME280;26579;43.238;23.124;2023-02-18T00:38:30;97565.44;;;8.92;44.70
39411;BME280;26579;43.238;23.124;2023-02-18T00:40:56;97568.31;;;8.87;45.18
39411;BME280;26579;43.238;23.124;2023-02-18T00:43:21;97568.19;;;8.76;45.89
39411;BME280;26579;43.238;23.124;2023-02-18T00:45:47;97557.91;;;8.74;46.52
39411;BME280;26579;43.238;23.124;2023-02-18T00:48:13;97556.19;;;8.60;46.99
39411;BME280;26579;43.238;23.124;2023-02-18T00:50:39;97561.69;;;8.56;47.39
39411;BME280;26579;43.238;23.124;2023-02-18T00:53:05;97554.09;;;8.53;47.29
39411;BME280;26579;43.238;23.124;2023-02-18T00:55:31;97551.22;;;8.43;47.48
39411;BME280;26579;43.238;23.124;2023-02-18T00:57:57;97546.97;;;8.28;48.38
39411;BME280;26579;43.238;23.124;2023-02-18T01:00:22;97544.03;;;8.20;48.62
39411;BME280;26579;43.238;23.124;2023-02-18T01:02:48;97549.69;;;8.26;47.91
39411;BME280;26579;43.238;23.124;2023-02-18T01:05:14;97560.06;;;8.26;48.25
39411;BME280;26579;43.238;23.124;2023-02-18T01:07:40;97557.38;;;8.28;47.57
39411;BME280;26579;43.238;23.124;2023-02-18T01:10:06;97538.56;;;8.24;47.28
39411;BME280;26579;43.238;23.124;2023-02-18T01:12:32;97536.53;;;8.29;47.06
39411;BME280;26579;43.238;23.124;2023-02-18T01:14:58;97542.81;;;8.39;46.66
39411;BME280;26579;43.238;23.124;2023-02-18T01:17:23;97530.47;;;8.29;47.31
39411;BME280;26579;43.238;23.124;2023-02-18T01:19:49;97548.84;;;8.40;47.31
39411;BME280;26579;43.238;23.124;2023-02-18T01:22:15;97526.47;;;8.37;47.08
39411;BME280;26579;43.238;23.124;2023-02-18T01:24:41;97535.13;;;8.38;47.45
39411;BME280;26579;43.238;23.124;2023-02-18T01:27:06;97519.06;;;8.31;46.80
39411;BME280;26579;43.238;23.124;2023-02-18T01:29:33;97529.00;;;8.39;46.19
39411;BME280;26579;43.238;23.124;2023-02-18T01:32:00;97521.03;;;8.42;46.13
39411;BME280;26579;43.238;23.124;2023-02-18T01:34:25;97528.66;;;8.58;46.29
39411;BME280;26579;43.238;23.124;2023-02-18T01:36:51;97518.47;;;8.55;45.83
39411;BME280;26579;43.238;23.124;2023-02-18T01:39:17;97525.28;;;8.70;46.04
39411;BME280;26579;43.238;23.124;2023-02-18T01:41:42;97535.56;;;8.72;46.32
39411;BME280;26579;43.238;23.124;2023-02-18T01:44:18;97523.28;;;8.61;45.93
39411;BME280;26579;43.238;23.124;2023-02-18T01:46:44;97531.31;;;8.71;46.22
39411;BME280;26579;43.238;23.124;2023-02-18T01:49:13;97515.41;;;8.63;46.27
39411;BME280;26579;43.238;23.124;2023-02-18T01:51:49;97501.78;;;8.59;46.68
39411;BME280;26579;43.238;23.124;2023-02-18T01:54:32;97509.47;;;8.60;47.59
39411;BME280;26579;43.238;23.124;2023-02-18T01:57:03;97498.16;;;8.61;46.85
39411;BME280;26579;43.238;23.124;2023-02-18T01:59:37;97503.78;;;8.68;46.55
39411;BME280;26579;43.238;23.124;2023-02-18T02:02:06;97511.09;;;8.76;46.89
39411;BME280;26579;43.238;23.124;2023-02-18T02:04:33;97496.13;;;8.79;46.48
39411;BME280;26579;43.238;23.124;2023-02-18T02:06:59;97496.13;;;8.79;46.78
39411;BME280;26579;43.238;23.124;2023-02-18T02:09:28;97477.53;;;8.73;47.01
39411;BME280;26579;43.238;23.124;2023-02-18T02:39:29;97502.22;;;8.66;47.77
39411;BME280;26579;43.238;23.124;2023-02-18T02:42:09;97500.34;;;8.68;47.47
39411;BME280;26579;43.238;23.124;2023-02-18T02:45:21;97494.22;;;8.69;47.41
39411;BME280;26579;43.238;23.124;2023-02-18T02:47:58;97474.69;;;8.63;47.34
39411;BME280;26579;43.238;23.124;2023-02-18T02:51:00;97493.69;;;8.64;47.86
39411;BME280;26579;43.238;23.124;2023-02-18T02:53:30;97479.44;;;8.44;47.69
39411;BME280;26579;43.238;23.124;2023-02-18T02:55:58;97485.13;;;8.49;47.48
39411;BME280;26579;43.238;23.124;2023-02-18T02:58:24;97484.66;;;8.56;47.58
39411;BME280;26579;43.238;23.124;2023-02-18T03:04:10;97508.09;;;8.55;48.02
39411;BME280;26579;43.238;23.124;2023-02-18T03:07:07;97516.06;;;8.52;47.87
39411;BME280;26579;43.238;23.124;2023-02-18T03:12:35;97515.78;;;8.56;47.66
39411;BME280;26579;43.238;23.124;2023-02-18T03:17:35;97509.47;;;8.60;46.95
39411;BME280;26579;43.238;23.124;2023-02-18T03:20:23;97516.13;;;8.65;47.04
39411;BME280;26579;43.238;23.124;2023-02-18T03:22:52;97516.69;;;8.70;46.63
39411;BME280;26579;43.238;23.124;2023-02-18T03:25:20;97496.19;;;8.65;46.84
39411;BME280;26579;43.238;23.124;2023-02-18T03:27:52;97474.59;;;8.65;46.68
39411;BME280;26579;43.238;23.124;2023-02-18T03:30:32;97506.66;;;8.91;46.11
39411;BME280;26579;43.238;23.124;2023-02-18T03:33:02;97511.44;;;9.10;44.81
39411;BME280;26579;43.238;23.124;2023-02-18T03:35:29;97486.50;;;9.20;44.34
39411;BME280;26579;43.238;23.124;2023-02-18T03:38:22;97492.97;;;9.40;44.04
39411;BME280;26579;43.238;23.124;2023-02-18T03:40:49;97479.72;;;9.56;43.28
39411;BME280;26579;43.238;23.124;2023-02-18T03:43:15;97486.38;;;9.72;42.73
39411;BME280;26579;43.238;23.124;2023-02-18T03:45:41;97475.84;;;9.87;42.18
39411;BME280;26579;43.238;23.124;2023-02-18T03:48:07;97477.47;;;10.01;41.71
39411;BME280;26579;43.238;23.124;2023-02-18T03:50:32;97478.25;;;10.14;41.35
39411;BME280;26579;43.238;23.124;2023-02-18T03:52:58;97478.41;;;10.24;40.68
39411;BME280;26579;43.238;23.124;2023-02-18T03:55:25;97475.56;;;10.39;40.93
39411;BME280;26579;43.238;23.124;2023-02-18T03:57:51;97475.72;;;10.49;39.97
39411;BME280;26579;43.238;23.124;2023-02-18T04:00:17;97464.03;;;10.55;40.32
39411;BME280;26579;43.238;23.124;2023-02-18T04:02:43;97468.72;;;10.74;39.79
39411;BME280;26579;43.238;23.124;2023-02-18T04:05:09;97472.44;;;10.82;39.60
39411;BME280;26579;43.238;23.124;2023-02-18T04:07:35;97476.22;;;10.90;39.38
39411;BME280;26579;43.238;23.124;2023-02-18T04:10:01;97483.00;;;11.03;39.36
39411;BME280;26579;43.238;23.124;2023-02-18T04:12:27;97478.72;;;11.02;39.21
39411;BME280;26579;43.238;23.124;2023-02-18T04:14:53;97466.78;;;11.11;38.83
39411;BME280;26579;43.238;23.124;2023-02-18T04:17:18;97477.94;;;11.24;38.52
39411;BME280;26579;43.238;23.124;2023-02-18T04:19:44;97467.53;;;11.24;38.44
39411;BME280;26579;43.238;23.124;2023-02-18T04:22:10;97473.00;;;11.32;38.16
39411;BME280;26579;43.238;23.124;2023-02-18T04:24:35;97478.09;;;11.45;37.78
39411;BME280;26579;43.238;23.124;2023-02-18T04:27:01;97468.38;;;11.47;37.90
39411;BME280;26579;43.238;23.124;2023-02-18T04:29:27;97455.34;;;11.47;38.16
39411;BME280;26579;43.238;23.124;2023-02-18T04:31:53;97471.47;;;11.52;38.35
39411;BME280;26579;43.238;23.124;2023-02-18T04:34:19;97462.69;;;11.53;38.43
39411;BME280;26579;43.238;23.124;2023-02-18T04:36:44;97454.03;;;11.64;37.71
39411;BME280;26579;43.238;23.124;2023-02-18T04:39:10;97461.13;;;11.73;37.93
39411;BME280;26579;43.238;23.124;2023-02-18T04:41:36;97438.97;;;11.68;37.56
39411;BME280;26579;43.238;23.124;2023-02-18T04:44:01;97451.88;;;11.81;37.82
39411;BME280;26579;43.238;23.124;2023-02-18T04:46:27;97451.41;;;11.75;38.20
39411;BME280;26579;43.238;23.124;2023-02-18T04:48:53;97442.06;;;11.73;37.65
39411;BME280;26579;43.238;23.124;2023-02-18T04:51:18;97451.19;;;11.78;38.26
39411;BME280;26579;43.238;23.124;2023-02-18T04:53:44;97439.78;;;11.68;38.56
39411;BME280;26579;43.238;23.124;2023-02-18T04:56:10;97448.09;;;11.73;38.47
39411;BME280;26579;43.238;23.124;2023-02-18T04:58:35;97454.03;;;11.75;38.60
39411;BME280;26579;43.238;23.124;2023-02-18T05:01:02;97456.41;;;11.67;39.09
39411;BME280;26579;43.238;23.124;2023-02-18T05:03:29;97468.00;;;11.74;39.02
39411;BME280;26579;43.238;23.124;2023-02-18T05:05:55;97452.09;;;11.77;39.23
39411;BME280;26579;43.238;23.124;2023-02-18T05:08:21;97454.03;;;11.75;39.17
39411;BME280;26579;43.238;23.124;2023-02-18T05:10:46;97448.34;;;11.70;39.80
39411;BME280;26579;43.238;23.124;2023-02-18T05:13:12;97450.81;;;11.72;39.65
39411;BME280;26579;43.238;23.124;2023-02-18T05:15:38;97454.97;;;11.63;39.90
39411;BME280;26579;43.238;23.124;2023-02-18T05:18:03;97433.19;;;11.53;39.53
39411;BME280;26579;43.238;23.124;2023-02-18T05:20:29;97451.28;;;11.54;40.25
39411;BME280;26579;43.238;23.124;2023-02-18T05:22:56;97438.38;;;11.42;40.86
39411;BME280;26579;43.238;23.124;2023-02-18T05:25:22;97433.28;;;11.40;40.81
39411;BME280;26579;43.238;23.124;2023-02-18T05:27:48;97431.63;;;11.39;40.76
39411;BME280;26579;43.238;23.124;2023-02-18T05:30:13;97425.59;;;11.39;40.42
39411;BME280;26579;43.238;23.124;2023-02-18T05:32:39;97408.06;;;11.29;40.63
39411;BME280;26579;43.238;23.124;2023-02-18T05:35:05;97415.38;;;11.13;41.28
39411;BME280;26579;43.238;23.124;2023-02-18T05:37:31;97410.06;;;11.15;41.38
39411;BME280;26579;43.238;23.124;2023-02-18T05:39:57;97406.16;;;11.09;41.88
39411;BME280;26579;43.238;23.124;2023-02-18T05:42:22;97428.56;;;11.12;41.55
39411;BME280;26579;43.238;23.124;2023-02-18T05:44:48;97423.44;;;11.10;39.30
39411;BME280;26579;43.238;23.124;2023-02-18T05:47:14;97428.66;;;11.10;41.50
39411;BME280;26579;43.238;23.124;2023-02-18T05:49:40;97429.84;;;11.28;37.16
39411;BME280;26579;43.238;23.124;2023-02-18T05:52:07;97442.66;;;11.43;37.19
39411;BME280;26579;43.238;23.124;2023-02-18T05:54:34;97427.72;;;11.45;37.70
39411;BME280;26579;43.238;23.124;2023-02-18T05:57:00;97441.81;;;11.65;37.44
39411;BME280;26579;43.238;23.124;2023-02-18T05:59:26;97437.44;;;11.65;38.62
39411;BME280;26579;43.238;23.124;2023-02-18T06:01:52;97429.84;;;11.51;38.50
39411;BME280;26579;43.238;23.124;2023-02-18T06:04:18;97436.50;;;11.55;37.80
39411;BME280;26579;43.238;23.124;2023-02-18T06:06:44;97437.19;;;11.57;38.88
39411;BME280;26579;43.238;23.124;2023-02-18T06:09:10;97423.81;;;11.39;38.85
39411;BME280;26579;43.238;23.124;2023-02-18T06:11:36;97449.06;;;11.50;39.35
39411;BME280;26579;43.238;23.124;2023-02-18T06:14:02;97437.19;;;11.46;39.22
39411;BME280;26579;43.238;23.124;2023-02-18T06:16:29;97453.06;;;11.54;39.02
39411;BME280;26579;43.238;23.124;2023-02-18T06:18:55;97447.84;;;11.54;39.14
39411;BME280;26579;43.238;23.124;2023-02-18T06:21:20;97453.44;;;11.49;39.09
39411;BME280;26579;43.238;23.124;2023-02-18T06:23:46;97437.44;;;11.54;38.54
39411;BME280;26579;43.238;23.124;2023-02-18T06:26:12;97439.31;;;11.63;39.15
39411;BME280;26579;43.238;23.124;2023-02-18T06:28:38;97435.19;;;11.61;39.61
39411;BME280;26579;43.238;23.124;2023-02-18T06:31:03;97440.75;;;11.67;39.25
39411;BME280;26579;43.238;23.124;2023-02-18T06:33:29;97439.44;;;11.73;39.01
39411;BME280;26579;43.238;23.124;2023-02-18T06:35:58;97422.72;;;11.75;39.43
39411;BME280;26579;43.238;23.124;2023-02-18T06:38:24;97427.69;;;11.78;39.46
39411;BME280;26579;43.238;23.124;2023-02-18T06:40:50;97430.66;;;11.96;38.67
39411;BME280;26579;43.238;23.124;2023-02-18T06:43:16;97416.66;;;11.97;39.45
39411;BME280;26579;43.238;23.124;2023-02-18T06:45:47;97426.72;;;12.02;39.31
39411;BME280;26579;43.238;23.124;2023-02-18T06:48:12;97425.84;;;12.13;39.15
39411;BME280;26579;43.238;23.124;2023-02-18T06:50:40;97429.25;;;12.24;39.02
39411;BME280;26579;43.238;23.124;2023-02-18T06:53:05;97410.03;;;12.26;39.32
39411;BME280;26579;43.238;23.124;2023-02-18T06:55:31;97419.84;;;12.33;40.33
39411;BME280;26579;43.238;23.124;2023-02-18T06:57:57;97423.44;;;12.53;39.53
39411;BME280;26579;43.238;23.124;2023-02-18T07:00:23;97425.56;;;12.59;39.78
39411;BME280;26579;43.238;23.124;2023-02-18T07:02:48;97418.16;;;12.64;40.03
39411;BME280;26579;43.238;23.124;2023-02-18T07:05:15;97417.16;;;12.77;39.74
39411;BME280;26579;43.238;23.124;2023-02-18T07:07:42;97397.53;;;12.82;40.31
39411;BME280;26579;43.238;23.124;2023-02-18T07:10:08;97409.88;;;13.01;39.58
39411;BME280;26579;43.238;23.124;2023-02-18T07:12:33;97412.94;;;13.27;38.38
39411;BME280;26579;43.238;23.124;2023-02-18T07:14:59;97406.09;;;13.76;36.64
39411;BME280;26579;43.238;23.124;2023-02-18T07:17:25;97404.25;;;15.60;33.55
39411;BME280;26579;43.238;23.124;2023-02-18T07:19:50;97391.41;;;17.86;29.79
39411;BME280;26579;43.238;23.124;2023-02-18T07:22:16;97387.94;;;19.89;26.92
39411;BME280;26579;43.238;23.124;2023-02-18T07:24:42;97366.81;;;20.12;26.04
39411;BME280;26579;43.238;23.124;2023-02-18T07:27:08;97370.47;;;20.11;26.48
39411;BME280;26579;43.238;23.124;2023-02-18T07:29:34;97387.06;;;19.97;26.38
39411;BME280;26579;43.238;23.124;2023-02-18T07:31:59;97371.22;;;19.65;26.52
39411;BME280;26579;43.238;23.124;2023-02-18T07:34:25;97397.50;;;19.42;27.66
39411;BME280;26579;43.238;23.124;2023-02-18T07:36:51;97397.91;;;19.15;27.95
39411;BME280;26579;43.238;23.124;2023-02-18T07:39:16;97401.59;;;18.97;28.00
39411;BME280;26579;43.238;23.124;2023-02-18T07:41:42;97409.47;;;18.57;28.61
39411;BME280;26579;43.238;23.124;2023-02-18T07:44:14;97413.56;;;18.26;29.63
39411;BME280;26579;43.238;23.124;2023-02-18T07:46:40;97403.47;;;18.05;29.81
39411;BME280;26579;43.238;23.124;2023-02-18T07:49:07;97408.88;;;17.87;30.41
39411;BME280;26579;43.238;23.124;2023-02-18T07:51:32;97406.66;;;17.75;30.62
39411;BME280;26579;43.238;23.124;2023-02-18T07:53:58;97400.97;;;17.53;31.20
39411;BME280;26579;43.238;23.124;2023-02-18T07:56:24;97410.97;;;17.50;31.34
39411;BME280;26579;43.238;23.124;2023-02-18T07:58:50;97418.59;;;17.27;32.69
39411;BME280;26579;43.238;23.124;2023-02-18T08:01:15;97418.59;;;17.27;32.24
39411;BME280;26579;43.238;23.124;2023-02-18T08:03:41;97419.09;;;17.22;32.32
39411;BME280;26579;43.238;23.124;2023-02-18T08:06:12;97412.25;;;17.11;32.28
39411;BME280;26579;43.238;23.124;2023-02-18T08:08:43;97412.63;;;17.16;32.36
39411;BME280;26579;43.238;23.124;2023-02-18T08:11:09;97417.03;;;17.16;33.10
39411;BME280;26579;43.238;23.124;2023-02-18T08:13:35;97409.75;;;17.02;33.45
39411;BME280;26579;43.238;23.124;2023-02-18T08:16:00;97433.56;;;17.00;33.62
39411;BME280;26579;43.238;23.124;2023-02-18T08:18:26;97416.66;;;17.03;33.78
39411;BME280;26579;43.238;23.124;2023-02-18T08:20:52;97419.41;;;17.01;34.21
39411;BME280;26579;43.238;23.124;2023-02-18T08:23:20;97414.03;;;17.03;33.87
39411;BME280;26579;43.238;23.124;2023-02-18T08:25:48;97408.91;;;17.01;33.64
39411;BME280;26579;43.238;23.124;2023-02-18T08:28:17;97404.19;;;17.05;34.16
39411;BME280;26579;43.238;23.124;2023-02-18T08:30:45;97409.81;;;17.18;34.21
39411;BME280;26579;43.238;23.124;2023-02-18T08:33:11;97403.00;;;17.33;33.48
39411;BME280;26579;43.238;23.124;2023-02-18T08:35:37;97405.22;;;17.46;33.33
39411;BME280;26579;43.238;23.124;2023-02-18T08:38:03;97409.94;;;17.77;33.39
39411;BME280;26579;43.238;23.124;2023-02-18T08:40:29;97413.94;;;17.81;32.91
39411;BME280;26579;43.238;23.124;2023-02-18T08:42:55;97416.06;;;18.36;32.28
39411;BME280;26579;43.238;23.124;2023-02-18T08:45:20;97402.81;;;19.34;31.07
39411;BME280;26579;43.238;23.124;2023-02-18T08:47:46;97422.47;;;20.42;29.36
39411;BME280;26579;43.238;23.124;2023-02-18T08:50:13;97414.81;;;20.55;28.91
39411;BME280;26579;43.238;23.124;2023-02-18T08:52:39;97418.44;;;20.77;28.51
39411;BME280;26579;43.238;23.124;2023-02-18T08:55:05;97411.47;;;22.39;26.18
39411;BME280;26579;43.238;23.124;2023-02-18T08:57:31;97417.06;;;21.93;26.78
39411;BME280;26579;43.238;23.124;2023-02-18T08:59:57;97417.56;;;21.82;27.15
39411;BME280;26579;43.238;23.124;2023-02-18T09:02:23;97411.13;;;21.32;27.18
39411;BME280;26579;43.238;23.124;2023-02-18T09:04:49;97411.19;;;21.09;27.63
39411;BME280;26579;43.238;23.124;2023-02-18T09:07:15;97419.94;;;21.77;27.05
39411;BME280;26579;43.238;23.124;2023-02-18T09:09:40;97420.72;;;21.18;27.46
39411;BME280;26579;43.238;23.124;2023-02-18T09:12:07;97426.94;;;21.25;27.92
39411;BME280;26579;43.238;23.124;2023-02-18T09:14:33;97402.56;;;20.31;28.41
39411;BME280;26579;43.238;23.124;2023-02-18T09:16:59;97423.50;;;19.78;29.55
39411;BME280;26579;43.238;23.124;2023-02-18T09:19:25;97433.16;;;19.47;30.10
39411;BME280;26579;43.238;23.124;2023-02-18T09:21:50;97415.38;;;19.24;30.75
39411;BME280;26579;43.238;23.124;2023-02-18T09:24:16;97441.91;;;19.31;31.14
39411;BME280;26579;43.238;23.124;2023-02-18T09:26:42;97439.22;;;19.55;30.63
39411;BME280;26579;43.238;23.124;2023-02-18T09:29:08;97431.31;;;19.55;30.67
39411;BME280;26579;43.238;23.124;2023-02-18T09:31:34;97441.56;;;19.42;31.03
39411;BME280;26579;43.238;23.124;2023-02-18T09:34:01;97433.81;;;20.50;28.89
39411;BME280;26579;43.238;23.124;2023-02-18T09:36:27;97440.22;;;21.02;27.97
39411;BME280;26579;43.238;23.124;2023-02-18T09:38:53;97450.84;;;20.25;29.10
39411;BME280;26579;43.238;23.124;2023-02-18T09:41:43;97448.47;;;19.51;29.98
39411;BME280;26579;43.238;23.124;2023-02-18T09:44:12;97458.28;;;19.10;30.68
39411;BME280;26579;43.238;23.124;2023-02-18T09:46:54;97450.38;;;19.02;30.95
39411;BME280;26579;43.238;23.124;2023-02-18T09:49:27;97452.69;;;19.13;30.56
39411;BME280;26579;43.238;23.124;2023-02-18T09:51:54;97452.19;;;18.93;30.70
39411;BME280;26579;43.238;23.124;2023-02-18T09:54:21;97456.66;;;18.92;30.57
39411;BME280;26579;43.238;23.124;2023-02-18T09:56:47;97453.81;;;19.18;30.80
39411;BME280;26579;43.238;23.124;2023-02-18T09:59:20;97452.31;;;19.32;29.73
39411;BME280;26579;43.238;23.124;2023-02-18T10:01:48;97451.56;;;19.79;29.28
39411;BME280;26579;43.238;23.124;2023-02-18T10:04:26;97438.66;;;19.84;29.03
39411;BME280;26579;43.238;23.124;2023-02-18T10:06:53;97456.03;;;20.10;28.72
39411;BME280;26579;43.238;23.124;2023-02-18T10:09:21;97439.59;;;19.92;28.98
39411;BME280;26579;43.238;23.124;2023-02-18T10:11:51;97426.31;;;19.60;29.53
39411;BME280;26579;43.238;23.124;2023-02-18T10:14:19;97443.41;;;19.33;30.39
39411;BME280;26579;43.238;23.124;2023-02-18T10:16:46;97456.94;;;19.38;29.84
39411;BME280;26579;43.238;23.124;2023-02-18T10:19:36;97452.31;;;19.40;29.33
39411;BME280;26579;43.238;23.124;2023-02-18T10:22:05;97454.63;;;19.35;29.56
39411;BME280;26579;43.238;23.124;2023-02-18T10:24:39;97449.22;;;19.29;29.83
39411;BME280;26579;43.238;23.124;2023-02-18T10:27:07;97435.38;;;19.02;30.20
39411;BME280;26579;43.238;23.124;2023-02-18T10:29:34;97442.47;;;19.10;29.67
39411;BME280;26579;43.238;23.124;2023-02-18T10:51:17;97414.69;;;19.30;29.55
39411;BME280;26579;43.238;23.124;2023-02-18T10:53:44;97411.91;;;19.32;29.41
39411;BME280;26579;43.238;23.124;2023-02-18T10:56:34;97420.75;;;19.47;28.92
39411;BME280;26579;43.238;23.124;2023-02-18T10:59:30;97405.94;;;19.38;28.48
39411;BME280;26579;43.238;23.124;2023-02-18T11:02:15;97408.13;;;19.26;28.68
39411;BME280;26579;43.238;23.124;2023-02-18T11:04:44;97402.50;;;19.29;28.87
39411;BME280;26579;43.238;23.124;2023-02-18T11:07:17;97408.72;;;19.44;28.62
39411;BME280;26579;43.238;23.124;2023-02-18T11:09:51;97398.75;;;19.63;28.31
39411;BME280;26579;43.238;23.124;2023-02-18T11:12:56;97393.09;;;19.82;27.79
39411;BME280;26579;43.238;23.124;2023-02-18T11:15:24;97386.69;;;20.08;27.90
39411;BME280;26579;43.238;23.124;2023-02-18T11:17:52;97378.88;;;20.38;26.88
39411;BME280;26579;43.238;23.124;2023-02-18T11:22:47;97383.22;;;20.53;27.02
39411;BME280;26579;43.238;23.124;2023-02-18T11:25:26;97388.63;;;20.37;26.85
39411;BME280;26579;43.238;23.124;2023-02-18T11:27:58;97381.94;;;20.26;27.23
39411;BME280;26579;43.238;23.124;2023-02-18T11:30:39;97374.59;;;20.13;27.23
39411;BME280;26579;43.238;23.124;2023-02-18T11:33:16;97381.28;;;20.24;27.12
39411;BME280;26579;43.238;23.124;2023-02-18T11:35:51;97387.41;;;20.25;27.00
39411;BME280;26579;43.238;23.124;2023-02-18T11:38:34;97401.94;;;20.21;27.60
39411;BME280;26579;43.238;23.124;2023-02-18T11:41:09;97371.84;;;19.76;27.16
39411;BME280;26579;43.238;23.124;2023-02-18T11:43:40;97386.34;;;19.72;27.75
39411;BME280;26579;43.238;23.124;2023-02-18T11:46:22;97360.06;;;19.39;28.17
39411;BME280;26579;43.238;23.124;2023-02-18T11:48:50;97363.19;;;19.42;28.08
39411;BME280;26579;43.238;23.124;2023-02-18T11:51:31;97352.19;;;19.22;28.82
39411;BME280;26579;43.238;23.124;2023-02-18T11:54:01;97344.69;;;19.42;28.32
39411;BME280;26579;43.238;23.124;2023-02-18T11:56:34;97355.19;;;19.67;27.88
39411;BME280;26579;43.238;23.124;2023-02-18T11:59:01;97351.72;;;19.98;27.86
39411;BME280;26579;43.238;23.124;2023-02-18T12:03:57;97336.22;;;20.41;27.24
39411;BME280;26579;43.238;23.124;2023-02-18T12:06:35;97339.59;;;20.49;26.45
39411;BME280;26579;43.238;23.124;2023-02-18T12:09:09;97339.16;;;20.46;26.56
39411;BME280;26579;43.238;23.124;2023-02-18T12:11:45;97338.19;;;20.39;26.55
39411;BME280;26579;43.238;23.124;2023-02-18T12:14:22;97337.38;;;20.38;26.75
39411;BME280;26579;43.238;23.124;2023-02-18T12:17:11;97337.47;;;20.53;26.47
39411;BME280;26579;43.238;23.124;2023-02-18T12:25:28;97340.50;;;20.65;26.16
39411;BME280;26579;43.238;23.124;2023-02-18T12:30:50;97343.19;;;20.56;26.28
39411;BME280;26579;43.238;23.124;2023-02-18T12:33:26;97336.56;;;20.61;26.45
39411;BME280;26579;43.238;23.124;2023-02-18T12:42:12;97327.28;;;20.19;26.21
39411;BME280;26579;43.238;23.124;2023-02-18T12:45:08;97324.88;;;19.86;26.96
39411;BME280;26579;43.238;23.124;2023-02-18T12:50:42;97325.78;;;19.70;27.34
39411;BME280;26579;43.238;23.124;2023-02-18T12:53:26;97324.63;;;19.64;27.72
39411;BME280;26579;43.238;23.124;2023-02-18T12:56:24;97326.16;;;19.67;27.50
39411;BME280;26579;43.238;23.124;2023-02-18T12:59:30;97320.56;;;19.54;27.84
39411;BME280;26579;43.238;23.124;2023-02-18T13:02:23;97328.66;;;19.52;27.81
39411;BME280;26579;43.238;23.124;2023-02-18T13:10:11;97337.78;;;19.41;28.34
39411;BME280;26579;43.238;23.124;2023-02-18T13:15:35;97324.09;;;19.46;27.81
39411;BME280;26579;43.238;23.124;2023-02-18T13:18:07;97315.38;;;19.37;27.94
39411;BME280;26579;43.238;23.124;2023-02-18T13:20:56;97327.38;;;19.40;28.10
39411;BME280;26579;43.238;23.124;2023-02-18T13:23:27;97336.34;;;19.31;27.79
39411;BME280;26579;43.238;23.124;2023-02-18T13:25:57;97327.78;;;19.29;27.93
39411;BME280;26579;43.238;23.124;2023-02-18T13:28:48;97338.81;;;19.32;28.09
39411;BME280;26579;43.238;23.124;2023-02-18T13:33:58;97339.91;;;18.98;28.31
39411;BME280;26579;43.238;23.124;2023-02-18T13:36:45;97333.25;;;19.11;28.59
39411;BME280;26579;43.238;23.124;2023-02-18T13:39:15;97323.03;;;19.08;27.60
39411;BME280;26579;43.238;23.124;2023-02-18T13:41:42;97332.84;;;18.91;27.45
39411;BME280;26579;43.238;23.124;2023-02-18T13:46:56;97333.16;;;18.71;28.37
39411;BME280;26579;43.238;23.124;2023-02-18T13:49:25;97332.34;;;18.63;28.46
39411;BME280;26579;43.238;23.124;2023-02-18T13:51:54;97335.66;;;18.65;28.51
39411;BME280;26579;43.238;23.124;2023-02-18T13:54:25;97332.16;;;18.72;28.06
39411;BME280;26579;43.238;23.124;2023-02-18T13:57:18;97334.31;;;18.61;28.51
39411;BME280;26579;43.238;23.124;2023-02-18T13:59:59;97316.88;;;18.35;28.78
39411;BME280;26579;43.238;23.124;2023-02-18T14:02:28;97332.88;;;18.42;28.69
39411;BME280;26579;43.238;23.124;2023-02-18T14:05:14;97334.16;;;18.38;28.98
39411;BME280;26579;43.238;23.124;2023-02-18T14:13:00;97337.13;;;18.43;28.78
39411;BME280;26579;43.238;23.124;2023-02-18T14:25:51;97326.44;;;18.44;29.02
39411;BME280;26579;43.238;23.124;2023-02-18T14:33:39;97310.94;;;18.17;29.13
39411;BME280;26579;43.238;23.124;2023-02-18T14:38:49;97308.81;;;18.04;28.95
39411;BME280;26579;43.238;23.124;2023-02-18T14:49:42;97299.03;;;17.80;29.62
39411;BME280;26579;43.238;23.124;2023-02-18T14:52:33;97287.81;;;17.70;29.83
39411;BME280;26579;43.238;23.124;2023-02-18T14:55:05;97284.84;;;17.64;29.76
39411;BME280;26579;43.238;23.124;2023-02-18T14:57:47;97285.13;;;17.53;30.49
39411;BME280;26579;43.238;23.124;2023-02-18T15:00:19;97274.94;;;17.50;30.78
39411;BME280;26579;43.238;23.124;2023-02-18T15:02:51;97264.44;;;17.58;30.83
39411;BME280;26579;43.238;23.124;2023-02-18T15:05:22;97247.16;;;17.56;30.98
39411;BME280;26579;43.238;23.124;2023-02-18T15:13:06;97244.38;;;17.57;31.19
39411;BME280;26579;43.238;23.124;2023-02-18T15:15:33;97249.13;;;17.62;31.65